sensor_id;sensor_type;location;lat;lon;timestamp;temperature;humidity
31675;DHT22;18276;45.520;11.018;2023-02-04T00:01:32;4.00;84.30
31675;DHT22;18276;45.520;11.018;2023-02-04T00:04:00;4.00;84.20
31675;DHT22;18276;45.520;11.018;2023-02-04T00:06:27;4.00;84.20
31675;DHT22;18276;45.520;11.018;2023-02-04T00:08:54;4.00;84.30
31675;DHT22;18276;45.520;11.018;2023-02-04T00:11:21;4.00;84.30
31675;DHT22;18276;45.520;11.018;2023-02-04T00:13:47;4.00;84.20
31675;DHT22;18276;45.520;11.018;2023-02-04T00:16:14;4.00;84.10
31675;DHT22;18276;45.520;11.018;2023-02-04T00:18:41;4.00;84.10
31675;DHT22;18276;45.520;11.018;2023-02-04T00:21:08;4.00;84.00
31675;DHT22;18276;45.520;11.018;2023-02-04T00:23:36;4.00;84.00
31675;DHT22;18276;45.520;11.018;2023-02-04T00:26:05;4.00;84.00
31675;DHT22;18276;45.520;11.018;2023-02-04T00:28:33;4.00;84.10
31675;DHT22;18276;45.520;11.018;2023-02-04T00:31:00;4.00;84.10
31675;DHT22;18276;45.520;11.018;2023-02-04T00:33:27;4.10;84.20
31675;DHT22;18276;45.520;11.018;2023-02-04T00:35:54;4.00;84.20
31675;DHT22;18276;45.520;11.018;2023-02-04T00:38:22;4.10;84.10
31675;DHT22;18276;45.520;11.018;2023-02-04T00:40:49;4.10;84.10
31675;DHT22;18276;45.520;11.018;2023-02-04T00:43:17;4.10;84.00
31675;DHT22;18276;45.520;11.018;2023-02-04T00:45:44;4.10;84.00
31675;DHT22;18276;45.520;11.018;2023-02-04T00:48:11;4.10;84.00
31675;DHT22;18276;45.520;11.018;2023-02-04T00:50:38;4.10;84.00
31675;DHT22;18276;45.520;11.018;2023-02-04T00:53:06;4.10;84.00
31675;DHT22;18276;45.520;11.018;2023-02-04T00:55:33;4.10;84.10
31675;DHT22;18276;45.520;11.018;2023-02-04T00:58:00;4.00;84.10
31675;DHT22;18276;45.520;11.018;2023-02-04T01:00:27;4.00;84.40
31675;DHT22;18276;45.520;11.018;2023-02-04T01:02:55;4.00;84.40
31675;DHT22;18276;45.520;11.018;2023-02-04T01:05:22;4.00;84.50
31675;DHT22;18276;45.520;11.018;2023-02-04T01:07:49;3.90;84.50
31675;DHT22;18276;45.520;11.018;2023-02-04T01:10:16;4.00;84.70
31675;DHT22;18276;45.520;11.018;2023-02-04T01:12:43;4.00;84.70
31675;DHT22;18276;45.520;11.018;2023-02-04T01:15:11;4.00;84.80
31675;DHT22;18276;45.520;11.018;2023-02-04T01:17:38;4.00;84.90
31675;DHT22;18276;45.520;11.018;2023-02-04T01:20:05;4.00;84.90
31675;DHT22;18276;45.520;11.018;2023-02-04T01:22:32;3.90;85.00
31675;DHT22;18276;45.520;11.018;2023-02-04T01:24:59;4.00;85.20
31675;DHT22;18276;45.520;11.018;2023-02-04T01:27:43;3.90;85.20
31675;DHT22;18276;45.520;11.018;2023-02-04T01:30:11;3.90;85.10
31675;DHT22;18276;45.520;11.018;2023-02-04T01:32:39;4.00;85.30
31675;DHT22;18276;45.520;11.018;2023-02-04T01:35:06;3.90;85.20
31675;DHT22;18276;45.520;11.018;2023-02-04T01:37:34;4.00;85.30
31675;DHT22;18276;45.520;11.018;2023-02-04T01:40:01;4.00;85.20
31675;DHT22;18276;45.520;11.018;2023-02-04T01:42:28;4.00;85.30
31675;DHT22;18276;45.520;11.018;2023-02-04T01:44:55;4.00;85.50
31675;DHT22;18276;45.520;11.018;2023-02-04T01:47:22;4.00;85.40
31675;DHT22;18276;45.520;11.018;2023-02-04T01:49:52;4.10;85.50
31675;DHT22;18276;45.520;11.018;2023-02-04T01:52:21;4.10;85.40
31675;DHT22;18276;45.520;11.018;2023-02-04T01:54:50;4.20;85.30
31675;DHT22;18276;45.520;11.018;2023-02-04T01:57:17;4.20;85.30
31675;DHT22;18276;45.520;11.018;2023-02-04T01:59:45;4.20;85.30
31675;DHT22;18276;45.520;11.018;2023-02-04T02:05:10;4.30;85.00
31675;DHT22;18276;45.520;11.018;2023-02-04T02:07:38;4.30;85.00
31675;DHT22;18276;45.520;11.018;2023-02-04T02:10:07;4.20;85.00
31675;DHT22;18276;45.520;11.018;2023-02-04T02:12:35;4.20;85.20
31675;DHT22;18276;45.520;11.018;2023-02-04T02:15:04;4.20;85.20
31675;DHT22;18276;45.520;11.018;2023-02-04T02:17:31;4.20;85.40
31675;DHT22;18276;45.520;11.018;2023-02-04T02:19:59;4.20;85.40
31675;DHT22;18276;45.520;11.018;2023-02-04T02:22:32;4.10;85.50
31675;DHT22;18276;45.520;11.018;2023-02-04T02:25:06;4.10;85.70
31675;DHT22;18276;45.520;11.018;2023-02-04T02:27:33;4.10;85.60
31675;DHT22;18276;45.520;11.018;2023-02-04T02:30:00;4.10;85.50
31675;DHT22;18276;45.520;11.018;2023-02-04T02:32:27;4.00;85.60
31675;DHT22;18276;45.520;11.018;2023-02-04T02:34:54;4.00;86.00
31675;DHT22;18276;45.520;11.018;2023-02-04T02:37:21;4.00;86.30
31675;DHT22;18276;45.520;11.018;2023-02-04T02:39:48;4.00;86.50
31675;DHT22;18276;45.520;11.018;2023-02-04T02:42:16;4.00;86.60
31675;DHT22;18276;45.520;11.018;2023-02-04T02:44:47;4.00;86.80
31675;DHT22;18276;45.520;11.018;2023-02-04T02:47:17;4.00;86.80
31675;DHT22;18276;45.520;11.018;2023-02-04T02:49:49;4.00;87.10
31675;DHT22;18276;45.520;11.018;2023-02-04T02:52:17;4.00;86.80
31675;DHT22;18276;45.520;11.018;2023-02-04T02:54:45;4.00;87.00
31675;DHT22;18276;45.520;11.018;2023-02-04T02:57:17;3.90;87.10
31675;DHT22;18276;45.520;11.018;2023-02-04T02:59:46;3.90;87.30
31675;DHT22;18276;45.520;11.018;2023-02-04T03:02:16;3.90;87.40
31675;DHT22;18276;45.520;11.018;2023-02-04T03:04:49;3.90;87.50
31675;DHT22;18276;45.520;11.018;2023-02-04T03:07:18;3.90;87.60
31675;DHT22;18276;45.520;11.018;2023-02-04T03:09:46;3.80;87.60
31675;DHT22;18276;45.520;11.018;2023-02-04T03:12:14;3.80;87.80
31675;DHT22;18276;45.520;11.018;2023-02-04T03:14:41;3.80;87.80
31675;DHT22;18276;45.520;11.018;2023-02-04T03:17:09;3.80;88.00
31675;DHT22;18276;45.520;11.018;2023-02-04T03:19:38;3.80;88.20
31675;DHT22;18276;45.520;11.018;2023-02-04T03:22:06;3.80;88.30
31675;DHT22;18276;45.520;11.018;2023-02-04T03:24:35;3.80;88.30
31675;DHT22;18276;45.520;11.018;2023-02-04T03:27:03;3.80;88.40
31675;DHT22;18276;45.520;11.018;2023-02-04T03:29:30;3.80;88.50
31675;DHT22;18276;45.520;11.018;2023-02-04T03:31:57;3.80;88.60
31675;DHT22;18276;45.520;11.018;2023-02-04T03:34:26;3.90;88.70
31675;DHT22;18276;45.520;11.018;2023-02-04T03:36:53;3.90;88.60
31675;DHT22;18276;45.520;11.018;2023-02-04T03:39:20;3.90;88.50
31675;DHT22;18276;45.520;11.018;2023-02-04T03:41:47;4.00;88.60
31675;DHT22;18276;45.520;11.018;2023-02-04T03:44:14;3.90;88.40
31675;DHT22;18276;45.520;11.018;2023-02-04T03:46:41;4.00;88.40
31675;DHT22;18276;45.520;11.018;2023-02-04T03:49:08;3.90;88.40
31675;DHT22;18276;45.520;11.018;2023-02-04T03:51:35;3.90;88.40
31675;DHT22;18276;45.520;11.018;2023-02-04T03:54:02;3.90;88.60
31675;DHT22;18276;45.520;11.018;2023-02-04T03:56:29;3.90;88.60
31675;DHT22;18276;45.520;11.018;2023-02-04T03:58:56;3.80;88.80
31675;DHT22;18276;45.520;11.018;2023-02-04T04:01:23;3.80;88.90
31675;DHT22;18276;45.520;11.018;2023-02-04T04:03:50;3.80;89.00
31675;DHT22;18276;45.520;11.018;2023-02-04T04:06:18;3.80;89.00
31675;DHT22;18276;45.520;11.018;2023-02-04T04:08:45;3.80;89.10
31675;DHT22;18276;45.520;11.018;2023-02-04T04:11:12;3.80;89.30
31675;DHT22;18276;45.520;11.018;2023-02-04T04:13:39;3.80;89.50
31675;DHT22;18276;45.520;11.018;2023-02-04T04:16:06;3.80;89.50
31675;DHT22;18276;45.520;11.018;2023-02-04T04:18:35;3.80;89.50
31675;DHT22;18276;45.520;11.018;2023-02-04T04:21:02;3.80;89.40
31675;DHT22;18276;45.520;11.018;2023-02-04T04:23:29;3.80;89.60
31675;DHT22;18276;45.520;11.018;2023-02-04T04:25:56;3.80;89.60
31675;DHT22;18276;45.520;11.018;2023-02-04T04:28:23;3.80;89.70
31675;DHT22;18276;45.520;11.018;2023-02-04T04:30:50;3.70;89.70
31675;DHT22;18276;45.520;11.018;2023-02-04T04:33:17;3.70;89.90
31675;DHT22;18276;45.520;11.018;2023-02-04T04:35:44;3.70;90.00
31675;DHT22;18276;45.520;11.018;2023-02-04T04:38:12;3.70;90.00
31675;DHT22;18276;45.520;11.018;2023-02-04T04:40:39;3.70;90.10
31675;DHT22;18276;45.520;11.018;2023-02-04T04:43:06;3.70;90.10
31675;DHT22;18276;45.520;11.018;2023-02-04T04:45:33;3.70;90.20
31675;DHT22;18276;45.520;11.018;2023-02-04T04:48:00;3.70;90.20
31675;DHT22;18276;45.520;11.018;2023-02-04T04:50:27;3.60;90.20
31675;DHT22;18276;45.520;11.018;2023-02-04T04:52:54;3.60;90.30
31675;DHT22;18276;45.520;11.018;2023-02-04T04:55:21;3.60;90.40
31675;DHT22;18276;45.520;11.018;2023-02-04T04:57:48;3.60;90.40
31675;DHT22;18276;45.520;11.018;2023-02-04T05:00:18;3.60;90.50
31675;DHT22;18276;45.520;11.018;2023-02-04T05:02:46;3.60;90.50
31675;DHT22;18276;45.520;11.018;2023-02-04T05:05:13;3.60;90.50
31675;DHT22;18276;45.520;11.018;2023-02-04T05:07:40;3.60;90.60
31675;DHT22;18276;45.520;11.018;2023-02-04T05:10:08;3.60;90.60
31675;DHT22;18276;45.520;11.018;2023-02-04T05:12:35;3.70;90.60
31675;DHT22;18276;45.520;11.018;2023-02-04T05:15:02;3.60;90.70
31675;DHT22;18276;45.520;11.018;2023-02-04T05:17:29;3.70;90.70
31675;DHT22;18276;45.520;11.018;2023-02-04T05:19:56;3.70;90.70
31675;DHT22;18276;45.520;11.018;2023-02-04T05:22:23;3.80;90.70
31675;DHT22;18276;45.520;11.018;2023-02-04T05:24:50;3.80;90.70
31675;DHT22;18276;45.520;11.018;2023-02-04T05:27:17;3.80;90.70
31675;DHT22;18276;45.520;11.018;2023-02-04T05:29:44;3.80;90.70
31675;DHT22;18276;45.520;11.018;2023-02-04T05:32:11;3.90;90.70
31675;DHT22;18276;45.520;11.018;2023-02-04T05:34:38;3.90;90.60
31675;DHT22;18276;45.520;11.018;2023-02-04T05:37:06;3.90;90.60
31675;DHT22;18276;45.520;11.018;2023-02-04T05:39:33;4.00;90.60
31675;DHT22;18276;45.520;11.018;2023-02-04T05:42:00;4.10;90.80
31675;DHT22;18276;45.520;11.018;2023-02-04T05:44:27;4.20;90.90
31675;DHT22;18276;45.520;11.018;2023-02-04T05:46:54;4.30;90.80
31675;DHT22;18276;45.520;11.018;2023-02-04T05:49:21;4.40;90.50
31675;DHT22;18276;45.520;11.018;2023-02-04T05:51:49;4.50;90.20
31675;DHT22;18276;45.520;11.018;2023-02-04T05:54:16;4.50;90.20
31675;DHT22;18276;45.520;11.018;2023-02-04T05:56:46;4.50;90.10
31675;DHT22;18276;45.520;11.018;2023-02-04T05:59:13;4.50;90.20
31675;DHT22;18276;45.520;11.018;2023-02-04T06:01:40;4.40;90.20
31675;DHT22;18276;45.520;11.018;2023-02-04T06:04:08;4.40;90.30
31675;DHT22;18276;45.520;11.018;2023-02-04T06:06:35;4.40;90.30
31675;DHT22;18276;45.520;11.018;2023-02-04T06:09:02;4.30;90.40
31675;DHT22;18276;45.520;11.018;2023-02-04T06:11:29;4.30;90.50
31675;DHT22;18276;45.520;11.018;2023-02-04T06:13:56;4.30;90.60
31675;DHT22;18276;45.520;11.018;2023-02-04T06:16:24;4.20;90.70
31675;DHT22;18276;45.520;11.018;2023-02-04T06:18:51;4.20;90.80
31675;DHT22;18276;45.520;11.018;2023-02-04T06:21:18;4.20;90.80
31675;DHT22;18276;45.520;11.018;2023-02-04T06:23:44;4.20;90.90
31675;DHT22;18276;45.520;11.018;2023-02-04T06:26:12;4.20;90.90
31675;DHT22;18276;45.520;11.018;2023-02-04T06:28:39;4.20;91.00
31675;DHT22;18276;45.520;11.018;2023-02-04T06:31:06;4.10;91.00
31675;DHT22;18276;45.520;11.018;2023-02-04T06:33:35;4.10;91.20
31675;DHT22;18276;45.520;11.018;2023-02-04T06:36:03;4.10;91.20
31675;DHT22;18276;45.520;11.018;2023-02-04T06:38:30;4.10;91.20
31675;DHT22;18276;45.520;11.018;2023-02-04T06:40:57;4.20;91.30
31675;DHT22;18276;45.520;11.018;2023-02-04T06:43:24;4.20;91.50
31675;DHT22;18276;45.520;11.018;2023-02-04T06:45:53;4.20;91.30
31675;DHT22;18276;45.520;11.018;2023-02-04T06:48:20;4.30;91.40
31675;DHT22;18276;45.520;11.018;2023-02-04T06:50:47;4.30;91.30
31675;DHT22;18276;45.520;11.018;2023-02-04T06:53:14;4.40;91.30
31675;DHT22;18276;45.520;11.018;2023-02-04T06:55:41;4.40;91.30
31675;DHT22;18276;45.520;11.018;2023-02-04T06:58:08;4.50;91.20
31675;DHT22;18276;45.520;11.018;2023-02-04T07:00:35;4.60;91.10
31675;DHT22;18276;45.520;11.018;2023-02-04T07:03:02;4.60;91.00
31675;DHT22;18276;45.520;11.018;2023-02-04T07:05:29;4.70;90.90
31675;DHT22;18276;45.520;11.018;2023-02-04T07:07:57;4.70;90.80
31675;DHT22;18276;45.520;11.018;2023-02-04T07:10:24;4.80;90.80
31675;DHT22;18276;45.520;11.018;2023-02-04T07:12:50;4.80;90.60
31675;DHT22;18276;45.520;11.018;2023-02-04T07:15:17;4.90;90.60
31675;DHT22;18276;45.520;11.018;2023-02-04T07:17:44;5.00;90.40
31675;DHT22;18276;45.520;11.018;2023-02-04T07:20:11;5.20;90.30
31675;DHT22;18276;45.520;11.018;2023-02-04T07:22:38;5.70;90.70
31675;DHT22;18276;45.520;11.018;2023-02-04T07:25:06;6.60;90.40
31675;DHT22;18276;45.520;11.018;2023-02-04T07:27:33;7.60;88.10
31675;DHT22;18276;45.520;11.018;2023-02-04T07:30:00;8.70;84.80
31675;DHT22;18276;45.520;11.018;2023-02-04T07:32:27;9.80;81.30
31675;DHT22;18276;45.520;11.018;2023-02-04T07:34:59;10.70;77.40
31675;DHT22;18276;45.520;11.018;2023-02-04T07:37:26;11.60;74.40
31675;DHT22;18276;45.520;11.018;2023-02-04T07:39:53;12.40;71.10
31675;DHT22;18276;45.520;11.018;2023-02-04T07:42:20;13.20;67.80
31675;DHT22;18276;45.520;11.018;2023-02-04T07:44:53;13.80;65.20
31675;DHT22;18276;45.520;11.018;2023-02-04T07:47:20;14.40;62.90
31675;DHT22;18276;45.520;11.018;2023-02-04T07:49:47;15.00;60.40
31675;DHT22;18276;45.520;11.018;2023-02-04T07:52:14;15.30;57.90
31675;DHT22;18276;45.520;11.018;2023-02-04T07:54:41;15.60;57.20
31675;DHT22;18276;45.520;11.018;2023-02-04T07:57:08;15.90;56.30
31675;DHT22;18276;45.520;11.018;2023-02-04T07:59:35;16.30;55.90
31675;DHT22;18276;45.520;11.018;2023-02-04T08:02:02;16.60;54.30
31675;DHT22;18276;45.520;11.018;2023-02-04T08:04:30;16.70;53.40
31675;DHT22;18276;45.520;11.018;2023-02-04T08:06:57;16.80;53.00
31675;DHT22;18276;45.520;11.018;2023-02-04T08:09:24;16.60;52.90
31675;DHT22;18276;45.520;11.018;2023-02-04T08:11:53;16.30;53.10
31675;DHT22;18276;45.520;11.018;2023-02-04T08:14:20;15.90;53.80
31675;DHT22;18276;45.520;11.018;2023-02-04T08:16:47;15.50;54.40
31675;DHT22;18276;45.520;11.018;2023-02-04T08:19:14;15.10;55.30
31675;DHT22;18276;45.520;11.018;2023-02-04T08:21:44;14.70;56.40
31675;DHT22;18276;45.520;11.018;2023-02-04T08:24:12;14.40;57.30
31675;DHT22;18276;45.520;11.018;2023-02-04T08:26:40;14.30;58.10
31675;DHT22;18276;45.520;11.018;2023-02-04T08:29:08;14.40;58.40
31675;DHT22;18276;45.520;11.018;2023-02-04T08:31:35;14.50;58.30
31675;DHT22;18276;45.520;11.018;2023-02-04T08:34:04;14.70;58.40
31675;DHT22;18276;45.520;11.018;2023-02-04T08:36:31;15.00;58.30
31675;DHT22;18276;45.520;11.018;2023-02-04T08:38:59;15.30;57.80
31675;DHT22;18276;45.520;11.018;2023-02-04T08:41:26;15.50;57.20
31675;DHT22;18276;45.520;11.018;2023-02-04T08:43:53;15.70;57.00
31675;DHT22;18276;45.520;11.018;2023-02-04T08:46:19;16.00;56.60
31675;DHT22;18276;45.520;11.018;2023-02-04T08:48:47;16.40;56.10
31675;DHT22;18276;45.520;11.018;2023-02-04T08:51:13;17.00;55.50
31675;DHT22;18276;45.520;11.018;2023-02-04T08:53:41;17.60;54.40
31675;DHT22;18276;45.520;11.018;2023-02-04T08:56:08;18.10;52.70
31675;DHT22;18276;45.520;11.018;2023-02-04T08:58:35;18.60;51.70
31675;DHT22;18276;45.520;11.018;2023-02-04T09:01:03;19.00;50.30
31675;DHT22;18276;45.520;11.018;2023-02-04T09:03:30;19.30;49.20
31675;DHT22;18276;45.520;11.018;2023-02-04T09:05:57;19.60;48.20
31675;DHT22;18276;45.520;11.018;2023-02-04T09:08:24;19.60;46.40
31675;DHT22;18276;45.520;11.018;2023-02-04T09:10:51;19.90;46.90
31675;DHT22;18276;45.520;11.018;2023-02-04T09:13:18;20.50;45.70
31675;DHT22;18276;45.520;11.018;2023-02-04T09:15:45;21.10;44.70
31675;DHT22;18276;45.520;11.018;2023-02-04T09:18:12;21.70;43.50
31675;DHT22;18276;45.520;11.018;2023-02-04T09:20:48;22.30;42.40
31675;DHT22;18276;45.520;11.018;2023-02-04T09:23:15;23.00;40.70
31675;DHT22;18276;45.520;11.018;2023-02-04T09:25:42;23.50;39.60
31675;DHT22;18276;45.520;11.018;2023-02-04T09:28:10;23.50;38.40
31675;DHT22;18276;45.520;11.018;2023-02-04T09:30:38;23.60;38.80
31675;DHT22;18276;45.520;11.018;2023-02-04T09:33:06;23.80;38.70
31675;DHT22;18276;45.520;11.018;2023-02-04T09:35:33;23.90;38.10
31675;DHT22;18276;45.520;11.018;2023-02-04T09:38:00;23.80;37.70
31675;DHT22;18276;45.520;11.018;2023-02-04T09:40:32;23.60;37.80
31675;DHT22;18276;45.520;11.018;2023-02-04T09:43:00;23.60;38.40
31675;DHT22;18276;45.520;11.018;2023-02-04T09:45:28;23.10;38.50
31675;DHT22;18276;45.520;11.018;2023-02-04T09:47:56;22.50;39.70
31675;DHT22;18276;45.520;11.018;2023-02-04T09:50:24;22.30;39.70
31675;DHT22;18276;45.520;11.018;2023-02-04T09:52:52;22.10;40.20
31675;DHT22;18276;45.520;11.018;2023-02-04T09:55:20;22.30;40.10
31675;DHT22;18276;45.520;11.018;2023-02-04T09:57:48;22.50;39.10
31675;DHT22;18276;45.520;11.018;2023-02-04T10:02:42;22.40;39.50
31675;DHT22;18276;45.520;11.018;2023-02-04T10:05:13;22.40;39.20
31675;DHT22;18276;45.520;11.018;2023-02-04T10:07:40;22.30;39.70
31675;DHT22;18276;45.520;11.018;2023-02-04T10:10:17;22.50;39.80
31675;DHT22;18276;45.520;11.018;2023-02-04T10:12:45;23.00;39.40
31675;DHT22;18276;45.520;11.018;2023-02-04T10:15:13;23.70;38.70
31675;DHT22;18276;45.520;11.018;2023-02-04T10:17:41;24.00;37.60
31675;DHT22;18276;45.520;11.018;2023-02-04T10:20:12;23.90;38.00
31675;DHT22;18276;45.520;11.018;2023-02-04T10:22:39;24.10;37.90
31675;DHT22;18276;45.520;11.018;2023-02-04T10:25:14;24.30;37.30
31675;DHT22;18276;45.520;11.018;2023-02-04T10:27:57;24.20;37.00
31675;DHT22;18276;45.520;11.018;2023-02-04T10:30:26;24.10;37.10
31675;DHT22;18276;45.520;11.018;2023-02-04T10:32:53;23.60;37.60
31675;DHT22;18276;45.520;11.018;2023-02-04T10:35:21;23.70;38.20
31675;DHT22;18276;45.520;11.018;2023-02-04T10:38:00;24.00;37.70
31675;DHT22;18276;45.520;11.018;2023-02-04T10:40:34;24.00;37.30
31675;DHT22;18276;45.520;11.018;2023-02-04T10:43:13;23.60;37.70
31675;DHT22;18276;45.520;11.018;2023-02-04T10:45:45;23.50;38.60
31675;DHT22;18276;45.520;11.018;2023-02-04T10:48:16;23.40;39.10
31675;DHT22;18276;45.520;11.018;2023-02-04T10:50:43;23.50;39.10
31675;DHT22;18276;45.520;11.018;2023-02-04T10:53:11;23.90;38.60
31675;DHT22;18276;45.520;11.018;2023-02-04T10:55:59;24.20;38.00
31675;DHT22;18276;45.520;11.018;2023-02-04T10:58:27;24.50;37.40
31675;DHT22;18276;45.520;11.018;2023-02-04T11:00:54;24.80;36.60
31675;DHT22;18276;45.520;11.018;2023-02-04T11:03:22;24.80;36.40
31675;DHT22;18276;45.520;11.018;2023-02-04T11:05:50;24.90;36.30
31675;DHT22;18276;45.520;11.018;2023-02-04T11:10:48;24.10;37.80
31675;DHT22;18276;45.520;11.018;2023-02-04T11:13:20;24.30;37.70
31675;DHT22;18276;45.520;11.018;2023-02-04T11:18:53;24.80;36.60
31675;DHT22;18276;45.520;11.018;2023-02-04T11:24:02;24.90;36.30
31675;DHT22;18276;45.520;11.018;2023-02-04T11:26:33;24.70;36.50
31675;DHT22;18276;45.520;11.018;2023-02-04T11:32:26;24.50;37.20
31675;DHT22;18276;45.520;11.018;2023-02-04T11:36:54;24.10;38.60
31675;DHT22;18276;45.520;11.018;2023-02-04T11:39:26;23.80;38.50
31675;DHT22;18276;45.520;11.018;2023-02-04T11:41:53;23.80;38.90
31675;DHT22;18276;45.520;11.018;2023-02-04T11:44:20;24.10;38.60
31675;DHT22;18276;45.520;11.018;2023-02-04T11:46:49;24.30;38.10
31675;DHT22;18276;45.520;11.018;2023-02-04T11:49:18;24.10;38.20
31675;DHT22;18276;45.520;11.018;2023-02-04T11:51:45;23.80;38.70
31675;DHT22;18276;45.520;11.018;2023-02-04T11:54:13;23.60;39.10
31675;DHT22;18276;45.520;11.018;2023-02-04T11:56:41;23.50;39.60
31675;DHT22;18276;45.520;11.018;2023-02-04T11:59:08;23.60;39.60
31675;DHT22;18276;45.520;11.018;2023-02-04T12:01:36;23.60;39.50
31675;DHT22;18276;45.520;11.018;2023-02-04T12:04:04;23.50;39.60
31675;DHT22;18276;45.520;11.018;2023-02-04T12:06:34;23.50;40.10
31675;DHT22;18276;45.520;11.018;2023-02-04T12:09:21;23.70;39.90
31675;DHT22;18276;45.520;11.018;2023-02-04T12:14:18;23.40;40.40
31675;DHT22;18276;45.520;11.018;2023-02-04T12:16:49;23.50;40.30
31675;DHT22;18276;45.520;11.018;2023-02-04T12:19:21;23.60;40.10
31675;DHT22;18276;45.520;11.018;2023-02-04T12:21:48;23.50;40.10
31675;DHT22;18276;45.520;11.018;2023-02-04T12:24:15;23.40;40.10
31675;DHT22;18276;45.520;11.018;2023-02-04T12:26:42;23.10;40.60
31675;DHT22;18276;45.520;11.018;2023-02-04T12:29:09;22.90;40.90
31675;DHT22;18276;45.520;11.018;2023-02-04T12:31:36;22.70;41.60
31675;DHT22;18276;45.520;11.018;2023-02-04T12:34:03;22.80;41.90
31675;DHT22;18276;45.520;11.018;2023-02-04T12:36:30;23.20;41.60
31675;DHT22;18276;45.520;11.018;2023-02-04T12:38:57;23.60;41.00
31675;DHT22;18276;45.520;11.018;2023-02-04T12:41:28;23.80;40.60
31675;DHT22;18276;45.520;11.018;2023-02-04T12:43:55;23.90;40.20
31675;DHT22;18276;45.520;11.018;2023-02-04T12:46:22;24.10;40.10
31675;DHT22;18276;45.520;11.018;2023-02-04T12:48:49;24.40;39.60
31675;DHT22;18276;45.520;11.018;2023-02-04T12:51:15;24.60;39.30
31675;DHT22;18276;45.520;11.018;2023-02-04T12:53:42;24.90;39.00
31675;DHT22;18276;45.520;11.018;2023-02-04T12:56:09;25.00;38.30
31675;DHT22;18276;45.520;11.018;2023-02-04T12:58:36;24.80;38.00
31675;DHT22;18276;45.520;11.018;2023-02-04T13:01:03;24.70;38.30
31675;DHT22;18276;45.520;11.018;2023-02-04T13:03:30;24.50;38.50
31675;DHT22;18276;45.520;11.018;2023-02-04T13:05:57;24.50;39.20
31675;DHT22;18276;45.520;11.018;2023-02-04T13:08:24;24.50;38.60
31675;DHT22;18276;45.520;11.018;2023-02-04T13:10:51;24.60;38.90
31675;DHT22;18276;45.520;11.018;2023-02-04T13:13:18;24.70;38.30
31675;DHT22;18276;45.520;11.018;2023-02-04T13:15:45;24.80;38.30
31675;DHT22;18276;45.520;11.018;2023-02-04T13:18:12;25.20;38.10
31675;DHT22;18276;45.520;11.018;2023-02-04T13:20:42;25.50;37.60
31675;DHT22;18276;45.520;11.018;2023-02-04T13:23:09;25.70;37.10
31675;DHT22;18276;45.520;11.018;2023-02-04T13:25:35;25.70;36.90
31675;DHT22;18276;45.520;11.018;2023-02-04T13:28:02;25.70;37.00
31675;DHT22;18276;45.520;11.018;2023-02-04T13:30:29;25.70;36.70
31675;DHT22;18276;45.520;11.018;2023-02-04T13:32:56;25.60;36.50
31675;DHT22;18276;45.520;11.018;2023-02-04T13:35:23;25.40;36.80
31675;DHT22;18276;45.520;11.018;2023-02-04T13:37:51;25.30;36.90
31675;DHT22;18276;45.520;11.018;2023-02-04T13:40:17;25.10;37.20
31675;DHT22;18276;45.520;11.018;2023-02-04T13:42:44;25.10;37.50
31675;DHT22;18276;45.520;11.018;2023-02-04T13:45:11;25.00;37.40
31675;DHT22;18276;45.520;11.018;2023-02-04T13:47:38;24.90;37.70
31675;DHT22;18276;45.520;11.018;2023-02-04T13:50:05;24.80;37.90
31675;DHT22;18276;45.520;11.018;2023-02-04T13:52:32;24.80;38.00
31675;DHT22;18276;45.520;11.018;2023-02-04T13:55:00;24.70;38.00
31675;DHT22;18276;45.520;11.018;2023-02-04T13:57:27;24.50;38.50
31675;DHT22;18276;45.520;11.018;2023-02-04T13:59:55;24.40;38.50
31675;DHT22;18276;45.520;11.018;2023-02-04T14:02:22;24.10;38.60
31675;DHT22;18276;45.520;11.018;2023-02-04T14:04:49;23.60;39.20
31675;DHT22;18276;45.520;11.018;2023-02-04T14:07:16;23.50;39.60
31675;DHT22;18276;45.520;11.018;2023-02-04T14:09:43;23.40;39.70
31675;DHT22;18276;45.520;11.018;2023-02-04T14:12:10;23.30;39.80
31675;DHT22;18276;45.520;11.018;2023-02-04T14:14:37;23.30;40.10
31675;DHT22;18276;45.520;11.018;2023-02-04T14:17:04;23.10;40.20
31675;DHT22;18276;45.520;11.018;2023-02-04T14:19:30;23.10;40.40
31675;DHT22;18276;45.520;11.018;2023-02-04T14:21:57;23.00;40.80
31675;DHT22;18276;45.520;11.018;2023-02-04T14:24:24;22.90;41.00
31675;DHT22;18276;45.520;11.018;2023-02-04T14:26:51;22.70;41.20
31675;DHT22;18276;45.520;11.018;2023-02-04T14:29:18;22.70;41.50
31675;DHT22;18276;45.520;11.018;2023-02-04T14:31:45;22.70;41.60
31675;DHT22;18276;45.520;11.018;2023-02-04T14:34:11;22.70;41.70
31675;DHT22;18276;45.520;11.018;2023-02-04T14:36:38;22.70;41.60
31675;DHT22;18276;45.520;11.018;2023-02-04T14:39:05;22.40;41.90
31675;DHT22;18276;45.520;11.018;2023-02-04T14:41:32;22.30;42.30
31675;DHT22;18276;45.520;11.018;2023-02-04T14:44:00;22.10;42.60
31675;DHT22;18276;45.520;11.018;2023-02-04T14:46:27;21.70;42.90
31675;DHT22;18276;45.520;11.018;2023-02-04T14:48:54;21.30;43.50
31675;DHT22;18276;45.520;11.018;2023-02-04T14:51:20;20.70;44.40
31675;DHT22;18276;45.520;11.018;2023-02-04T14:53:47;20.10;45.40
31675;DHT22;18276;45.520;11.018;2023-02-04T14:56:14;19.70;46.20
31675;DHT22;18276;45.520;11.018;2023-02-04T14:58:41;19.40;46.70
31675;DHT22;18276;45.520;11.018;2023-02-04T15:01:08;18.90;47.40
31675;DHT22;18276;45.520;11.018;2023-02-04T15:03:35;18.50;47.90
31675;DHT22;18276;45.520;11.018;2023-02-04T15:06:02;18.30;48.20
31675;DHT22;18276;45.520;11.018;2023-02-04T15:08:29;18.00;48.30
31675;DHT22;18276;45.520;11.018;2023-02-04T15:10:58;17.50;48.70
31675;DHT22;18276;45.520;11.018;2023-02-04T15:13:25;16.90;50.00
31675;DHT22;18276;45.520;11.018;2023-02-04T15:15:54;16.30;51.40
31675;DHT22;18276;45.520;11.018;2023-02-04T15:18:21;15.80;52.60
31675;DHT22;18276;45.520;11.018;2023-02-04T15:20:48;15.40;53.60
31675;DHT22;18276;45.520;11.018;2023-02-04T15:23:15;15.10;54.20
31675;DHT22;18276;45.520;11.018;2023-02-04T15:25:44;14.90;55.00
31675;DHT22;18276;45.520;11.018;2023-02-04T15:28:11;14.70;55.60
31675;DHT22;18276;45.520;11.018;2023-02-04T15:30:38;14.50;56.60
31675;DHT22;18276;45.520;11.018;2023-02-04T15:33:06;14.30;57.30
31675;DHT22;18276;45.520;11.018;2023-02-04T15:35:33;14.20;58.70
31675;DHT22;18276;45.520;11.018;2023-02-04T15:37:59;14.00;60.50
31675;DHT22;18276;45.520;11.018;2023-02-04T15:40:26;13.80;62.00
31675;DHT22;18276;45.520;11.018;2023-02-04T15:42:55;13.60;65.00
31675;DHT22;18276;45.520;11.018;2023-02-04T15:45:23;13.40;65.60
31675;DHT22;18276;45.520;11.018;2023-02-04T15:47:50;13.30;66.70